createdAt,value
2019-01-29T00:01:46.768Z,22.47
2019-01-29T00:06:51.400Z,14.07
2019-01-29T00:11:56.157Z,12.87
2019-01-29T00:17:00.790Z,15.77
2019-01-29T00:22:05.540Z,18.10
2019-01-29T00:27:10.378Z,15.23
2019-01-29T00:32:14.934Z,11.77
2019-01-29T00:37:19.660Z,11.83
2019-01-29T00:42:24.192Z,13.67
2019-01-29T00:47:28.825Z,12.40
2019-01-29T00:52:41.669Z,13.53
2019-01-29T00:57:39.757Z,11.43
2019-01-29T01:02:44.316Z,11.10
2019-01-29T01:07:49.043Z,11.37
2019-01-29T01:12:53.681Z,9.77
2019-01-29T01:17:58.422Z,11.10
2019-01-29T01:23:03.053Z,13.27
2019-01-29T01:28:07.910Z,10.63
2019-01-29T01:33:12.546Z,9.87
2019-01-29T01:38:17.802Z,18.23
2019-01-29T01:43:22.443Z,18.30
2019-01-29T01:48:27.188Z,18.23
2019-01-29T01:53:31.828Z,11.30
2019-01-29T01:58:36.455Z,10.80
2019-01-29T02:03:41.104Z,10.43
2019-01-29T02:08:45.849Z,8.53
2019-01-29T02:13:50.628Z,8.10
2019-01-29T02:18:55.290Z,10.67
2019-01-29T02:23:59.966Z,11.23
2019-01-29T02:29:04.722Z,7.97
2019-01-29T02:34:10.385Z,8.47
2019-01-29T02:39:15.024Z,9.30
2019-01-29T02:44:19.666Z,9.57
2019-01-29T02:49:24.508Z,10.00
2019-01-29T02:54:29.150Z,10.33
2019-01-29T02:59:33.787Z,12.27
2019-01-29T03:04:38.426Z,12.47
2019-01-29T03:09:43.059Z,16.77
2019-01-29T03:14:47.811Z,15.60
2019-01-29T03:19:52.555Z,12.47
2019-01-29T03:24:57.083Z,14.50
2019-01-29T03:30:01.838Z,11.97
2019-01-29T03:35:07.804Z,9.47
2019-01-29T03:40:15.228Z,9.50
2019-01-29T03:45:20.062Z,9.70
2019-01-29T03:50:24.801Z,11.90
2019-01-29T03:55:29.546Z,11.10
2019-01-29T04:00:34.437Z,24.83
2019-01-29T04:05:39.131Z,28.30
2019-01-29T04:10:43.872Z,16.03
2019-01-29T04:15:48.823Z,17.43
2019-01-29T04:20:53.667Z,16.73
2019-01-29T04:25:58.449Z,15.77
2019-01-29T04:31:03.148Z,14.27
2019-01-29T04:36:07.893Z,14.33
2019-01-29T04:41:12.534Z,15.97
2019-01-29T04:46:17.179Z,14.03
2019-01-29T04:51:21.872Z,14.50
2019-01-29T04:56:26.660Z,19.80
2019-01-29T05:01:33.146Z,24.17
2019-01-29T05:06:37.841Z,22.37
2019-01-29T05:11:42.628Z,22.87
2019-01-29T05:16:47.371Z,17.70
2019-01-29T05:21:52.115Z,60.97
2019-01-29T05:26:56.961Z,46.53
2019-01-29T05:32:01.707Z,101.67
2019-01-29T05:37:06.552Z,79.60
2019-01-29T05:42:11.296Z,81.67
2019-01-29T05:47:15.908Z,109.77
2019-01-29T05:52:20.577Z,68.83
2019-01-29T05:57:25.167Z,24.70
2019-01-29T06:02:29.849Z,29.53
2019-01-29T06:07:34.499Z,29.17
2019-01-29T06:12:39.343Z,26.83
2019-01-29T06:17:44.082Z,20.33
2019-01-29T06:22:48.736Z,31.57
2019-01-29T06:27:53.463Z,45.33
2019-01-29T06:32:58.261Z,40.97
2019-01-29T06:38:03.050Z,57.23
2019-01-29T06:43:07.794Z,66.33
2019-01-29T06:48:12.543Z,61.17
2019-01-29T06:53:17.113Z,61.40
2019-01-29T06:58:21.921Z,64.47
2019-01-29T07:03:26.663Z,53.10
2019-01-29T07:08:31.405Z,52.23
2019-01-29T07:13:36.043Z,55.90
2019-01-29T07:18:48.364Z,54.70
2019-01-29T07:23:53.108Z,64.33
2019-01-29T07:28:57.789Z,64.33
2019-01-29T07:34:02.387Z,62.50
2019-01-29T07:39:09.384Z,40.27
2019-01-29T07:44:14.039Z,32.97
2019-01-29T07:49:18.766Z,35.60
2019-01-29T07:54:23.510Z,27.20
2019-01-29T07:59:33.275Z,30.97
2019-01-29T08:04:35.657Z,31.60
2019-01-29T08:09:40.402Z,17.37
2019-01-29T08:14:45.044Z,14.23
2019-01-29T08:19:49.785Z,17.80
2019-01-29T08:25:01.937Z,19.97
2019-01-29T08:30:03.341Z,20.73
2019-01-29T08:35:11.390Z,31.30
2019-01-29T08:40:16.933Z,38.67
2019-01-29T08:45:21.689Z,47.80
2019-01-29T08:50:27.482Z,36.30
2019-01-29T08:55:32.090Z,82.27
2019-01-29T09:00:36.838Z,89.43
2019-01-29T09:05:41.452Z,91.33
2019-01-29T09:10:46.222Z,63.93
2019-01-29T09:15:50.966Z,49.20
2019-01-29T09:20:55.711Z,41.57
2019-01-29T09:26:00.456Z,38.70
2019-01-29T09:31:05.299Z,45.13
2019-01-29T09:36:10.023Z,44.80
2019-01-29T09:41:14.803Z,54.90
2019-01-29T09:46:19.654Z,43.80
2019-01-29T09:51:24.372Z,45.37
2019-01-29T09:56:29.010Z,40.80
2019-01-29T10:01:33.650Z,40.57
2019-01-29T10:06:38.394Z,43.03
2019-01-29T10:11:43.139Z,48.13
2019-01-29T10:16:48.007Z,48.33
2019-01-29T10:21:52.725Z,35.93
2019-01-29T10:26:57.466Z,33.57
2019-01-29T10:32:02.313Z,26.87
2019-01-29T10:37:06.944Z,25.70
2019-01-29T10:42:11.694Z,22.27
2019-01-29T10:47:16.438Z,25.80
2019-01-29T10:52:21.180Z,26.27
2019-01-29T10:57:25.923Z,26.47
2019-01-29T11:02:30.668Z,19.63
2019-01-29T11:07:35.693Z,22.67
2019-01-29T11:12:40.564Z,24.63
2019-01-29T11:17:45.463Z,21.60
2019-01-29T11:22:50.355Z,22.00
2019-01-29T11:27:55.214Z,22.43
2019-01-29T11:32:59.945Z,24.67
2019-01-29T11:38:04.683Z,24.93
2019-01-29T11:43:09.327Z,24.53
2019-01-29T11:48:14.068Z,34.50
2019-01-29T11:53:18.709Z,17.67
2019-01-29T11:58:23.456Z,18.17
2019-01-29T12:03:28.194Z,31.00
2019-01-29T12:08:33.034Z,29.60
2019-01-29T12:13:37.991Z,24.80
2019-01-29T12:18:42.731Z,15.47
2019-01-29T12:23:47.474Z,17.67
2019-01-29T12:28:52.222Z,26.33
2019-01-29T12:33:57.024Z,19.80
2019-01-29T12:39:01.811Z,17.73
2019-01-29T12:44:08.188Z,17.30
2019-01-29T12:49:14.058Z,22.43
2019-01-29T12:54:18.802Z,20.10
2019-01-29T12:59:23.544Z,17.17
2019-01-29T13:04:29.909Z,32.60
2019-01-29T13:09:35.296Z,25.80
2019-01-29T13:14:40.517Z,18.67
2019-01-29T13:19:45.487Z,20.03
2019-01-29T13:24:50.331Z,19.30
2019-01-29T13:29:55.074Z,18.67
2019-01-29T13:34:59.815Z,17.30
2019-01-29T13:40:10.495Z,16.43
2019-01-29T13:45:16.989Z,17.93
2019-01-29T13:50:27.560Z,19.00
2019-01-29T13:55:33.434Z,19.80
2019-01-29T14:00:39.605Z,16.80
2019-01-29T14:05:44.250Z,20.97
2019-01-29T14:10:48.992Z,17.17
2019-01-29T14:15:54.650Z,17.13
2019-01-29T14:20:59.600Z,18.77
2019-01-29T14:26:04.349Z,19.40
2019-01-29T14:31:09.397Z,32.23
2019-01-29T14:36:16.886Z,21.53
2019-01-29T14:41:20.520Z,40.47
2019-01-29T14:46:25.259Z,23.80
2019-01-29T14:51:30.104Z,27.03
2019-01-29T14:56:34.948Z,24.30
2019-01-29T15:01:39.585Z,36.83
2019-01-29T15:06:44.337Z,25.07
2019-01-29T15:11:48.988Z,27.50
2019-01-29T15:16:55.252Z,22.47
2019-01-29T15:21:59.889Z,27.30
2019-01-29T15:27:05.731Z,25.17
2019-01-29T15:32:10.711Z,22.50
2019-01-29T15:37:15.457Z,21.97
2019-01-29T15:42:20.212Z,23.43
2019-01-29T15:47:25.301Z,25.30
2019-01-29T15:52:30.205Z,22.90
2019-01-29T15:57:35.421Z,25.17
2019-01-29T16:02:41.934Z,23.73
2019-01-29T16:07:49.186Z,22.07
2019-01-29T16:12:54.185Z,25.27
2019-01-29T16:17:58.945Z,22.50
2019-01-29T16:23:04.038Z,21.20
2019-01-29T16:28:09.347Z,22.07
2019-01-29T16:33:14.290Z,31.03
2019-01-29T16:38:18.926Z,20.70
2019-01-29T16:43:23.634Z,17.83
2019-01-29T16:48:28.525Z,36.20
2019-01-29T16:53:34.594Z,29.17
2019-01-29T16:58:39.941Z,27.37
2019-01-29T17:03:44.685Z,30.20
2019-01-29T17:08:49.432Z,30.03
2019-01-29T17:13:54.476Z,32.70
2019-01-29T17:18:59.118Z,31.77
2019-01-29T17:24:03.862Z,29.57
2019-01-29T17:29:08.619Z,30.33
2019-01-29T17:34:13.448Z,29.97
2019-01-29T17:39:18.047Z,26.70
2019-01-29T17:44:22.836Z,25.70
2019-01-29T17:49:27.584Z,26.77
2019-01-29T17:54:32.214Z,34.67
2019-01-29T17:59:37.396Z,42.03
2019-01-29T18:04:42.625Z,48.13
2019-01-29T18:09:47.546Z,44.77
2019-01-29T18:14:52.932Z,47.87
2019-01-29T18:19:57.773Z,57.80
2019-01-29T18:25:06.000Z,62.47
2019-01-29T18:30:20.382Z,52.60
2019-01-29T18:35:27.075Z,58.97
2019-01-29T18:40:38.258Z,60.10
2019-01-29T18:45:42.992Z,56.67
2019-01-29T18:50:47.714Z,51.57
2019-01-29T18:55:53.297Z,47.97
2019-01-29T19:00:58.041Z,52.97
2019-01-29T19:06:02.887Z,52.20
2019-01-29T19:11:07.929Z,45.90
2019-01-29T19:16:12.880Z,54.67
2019-01-29T19:21:17.730Z,68.20
2019-01-29T19:26:23.604Z,64.60
2019-01-29T19:31:28.232Z,61.13
2019-01-29T19:36:33.070Z,58.63
2019-01-29T19:41:38.861Z,55.43
2019-01-29T19:46:43.731Z,52.97
2019-01-29T19:51:49.131Z,52.47
2019-01-29T19:56:54.207Z,42.43
2019-01-29T20:01:58.944Z,44.00
2019-01-29T20:07:04.301Z,43.73
2019-01-29T20:12:10.593Z,45.73
2019-01-29T20:17:17.603Z,39.43
2019-01-29T20:22:21.702Z,42.87
2019-01-29T20:27:26.476Z,51.80
2019-01-29T20:32:31.248Z,52.07
2019-01-29T20:37:36.139Z,51.20
2019-01-29T20:42:40.985Z,47.30
2019-01-29T20:47:45.832Z,44.07
2019-01-29T20:52:50.573Z,44.63
2019-01-29T20:57:55.316Z,42.50
2019-01-29T21:02:59.975Z,46.00
2019-01-29T21:08:04.903Z,44.40
2019-01-29T21:13:11.015Z,40.87
2019-01-29T21:18:15.926Z,43.43
2019-01-29T21:23:20.668Z,52.53
2019-01-29T21:28:25.213Z,54.17
2019-01-29T21:33:30.054Z,75.10
2019-01-29T21:38:34.612Z,51.83
2019-01-29T21:43:39.860Z,41.47
2019-01-29T21:48:44.689Z,41.80
2019-01-29T21:53:49.430Z,39.40
2019-01-29T21:58:54.304Z,42.23
2019-01-29T22:03:59.025Z,46.43
2019-01-29T22:09:03.868Z,61.27
2019-01-29T22:14:10.247Z,72.53
2019-01-29T22:19:14.894Z,73.37
2019-01-29T22:24:19.732Z,58.90
2019-01-29T22:29:24.478Z,96.73
2019-01-29T22:34:29.319Z,101.40
2019-01-29T22:39:34.061Z,91.83
2019-01-29T22:44:38.805Z,99.37
2019-01-29T22:49:43.550Z,81.60
2019-01-29T22:54:48.261Z,65.27
2019-01-29T22:59:53.032Z,59.57
2019-01-29T23:04:57.878Z,92.73
2019-01-29T23:10:02.721Z,84.30
2019-01-29T23:15:10.546Z,88.77
2019-01-29T23:20:18.764Z,64.17
2019-01-29T23:25:23.506Z,58.47
2019-01-29T23:30:28.249Z,56.60
2019-01-29T23:35:33.279Z,61.80
2019-01-29T23:40:38.162Z,52.33
2019-01-29T23:45:42.885Z,48.40
2019-01-29T23:50:48.595Z,48.97
2019-01-29T23:55:53.393Z,46.13
